sensor_id;sensor_type;location;lat;lon;timestamp;P1;durP1;ratioP1;P2;durP2;ratioP2
12445;SDS011;6287;50.984;7.022;2023-07-24T00:00:24;2.05;;;1.85;;
12445;SDS011;6287;50.984;7.022;2023-07-24T00:02:51;1.70;;;1.60;;
12445;SDS011;6287;50.984;7.022;2023-07-24T00:05:18;1.80;;;1.70;;
12445;SDS011;6287;50.984;7.022;2023-07-24T00:07:44;1.75;;;1.33;;
12445;SDS011;6287;50.984;7.022;2023-07-24T00:10:12;2.05;;;1.83;;
12445;SDS011;6287;50.984;7.022;2023-07-24T00:12:39;2.85;;;1.92;;
12445;SDS011;6287;50.984;7.022;2023-07-24T00:15:08;2.15;;;1.95;;
12445;SDS011;6287;50.984;7.022;2023-07-24T00:17:38;2.40;;;2.20;;
12445;SDS011;6287;50.984;7.022;2023-07-24T00:20:06;2.80;;;2.00;;
12445;SDS011;6287;50.984;7.022;2023-07-24T00:22:34;2.20;;;2.00;;
12445;SDS011;6287;50.984;7.022;2023-07-24T00:25:00;2.63;;;2.42;;
12445;SDS011;6287;50.984;7.022;2023-07-24T00:27:29;2.20;;;2.10;;
12445;SDS011;6287;50.984;7.022;2023-07-24T00:29:57;2.20;;;2.00;;
12445;SDS011;6287;50.984;7.022;2023-07-24T00:32:22;2.47;;;1.90;;
12445;SDS011;6287;50.984;7.022;2023-07-24T00:34:50;1.98;;;1.88;;
12445;SDS011;6287;50.984;7.022;2023-07-24T00:37:16;1.83;;;1.70;;
12445;SDS011;6287;50.984;7.022;2023-07-24T00:39:46;4.90;;;2.45;;
12445;SDS011;6287;50.984;7.022;2023-07-24T00:42:14;1.83;;;1.73;;
12445;SDS011;6287;50.984;7.022;2023-07-24T00:44:40;2.20;;;2.00;;
12445;SDS011;6287;50.984;7.022;2023-07-24T00:47:08;2.28;;;2.08;;
12445;SDS011;6287;50.984;7.022;2023-07-24T00:49:34;2.95;;;1.77;;
12445;SDS011;6287;50.984;7.022;2023-07-24T00:52:00;2.33;;;1.95;;
12445;SDS011;6287;50.984;7.022;2023-07-24T00:54:26;2.83;;;2.10;;
12445;SDS011;6287;50.984;7.022;2023-07-24T00:56:55;2.70;;;1.90;;
12445;SDS011;6287;50.984;7.022;2023-07-24T00:59:21;3.20;;;2.00;;
12445;SDS011;6287;50.984;7.022;2023-07-24T01:01:47;1.98;;;1.85;;
12445;SDS011;6287;50.984;7.022;2023-07-24T01:04:15;2.50;;;2.10;;
12445;SDS011;6287;50.984;7.022;2023-07-24T01:06:44;3.03;;;1.92;;
12445;SDS011;6287;50.984;7.022;2023-07-24T01:09:15;2.20;;;2.00;;
12445;SDS011;6287;50.984;7.022;2023-07-24T01:11:43;4.05;;;2.22;;
12445;SDS011;6287;50.984;7.022;2023-07-24T01:14:16;2.15;;;1.95;;
12445;SDS011;6287;50.984;7.022;2023-07-24T01:16:46;1.90;;;1.80;;
12445;SDS011;6287;50.984;7.022;2023-07-24T01:19:20;2.65;;;1.85;;
12445;SDS011;6287;50.984;7.022;2023-07-24T01:21:58;3.20;;;1.77;;
12445;SDS011;6287;50.984;7.022;2023-07-24T01:24:48;3.13;;;1.80;;
12445;SDS011;6287;50.984;7.022;2023-07-24T01:27:23;4.00;;;1.80;;
12445;SDS011;6287;50.984;7.022;2023-07-24T01:29:49;2.28;;;2.10;;
12445;SDS011;6287;50.984;7.022;2023-07-24T01:32:15;2.22;;;2.08;;
12445;SDS011;6287;50.984;7.022;2023-07-24T01:34:41;2.33;;;1.80;;
12445;SDS011;6287;50.984;7.022;2023-07-24T01:37:07;2.28;;;2.08;;
12445;SDS011;6287;50.984;7.022;2023-07-24T01:39:36;2.20;;;2.00;;
12445;SDS011;6287;50.984;7.022;2023-07-24T01:42:07;2.13;;;1.98;;
12445;SDS011;6287;50.984;7.022;2023-07-24T01:44:36;2.40;;;2.20;;
12445;SDS011;6287;50.984;7.022;2023-07-24T01:47:02;2.50;;;2.20;;
12445;SDS011;6287;50.984;7.022;2023-07-24T01:49:27;2.58;;;2.00;;
12445;SDS011;6287;50.984;7.022;2023-07-24T01:51:55;2.15;;;1.95;;
12445;SDS011;6287;50.984;7.022;2023-07-24T01:54:26;2.10;;;1.95;;
12445;SDS011;6287;50.984;7.022;2023-07-24T01:56:51;3.38;;;2.05;;
12445;SDS011;6287;50.984;7.022;2023-07-24T01:59:17;2.22;;;2.03;;
12445;SDS011;6287;50.984;7.022;2023-07-24T02:01:45;2.35;;;2.00;;
12445;SDS011;6287;50.984;7.022;2023-07-24T02:04:11;3.13;;;1.90;;
12445;SDS011;6287;50.984;7.022;2023-07-24T02:06:39;2.33;;;2.00;;
12445;SDS011;6287;50.984;7.022;2023-07-24T02:09:05;2.30;;;2.10;;
12445;SDS011;6287;50.984;7.022;2023-07-24T02:11:31;2.40;;;2.13;;
12445;SDS011;6287;50.984;7.022;2023-07-24T02:13:57;3.80;;;2.25;;
12445;SDS011;6287;50.984;7.022;2023-07-24T02:16:22;4.05;;;2.67;;
12445;SDS011;6287;50.984;7.022;2023-07-24T02:18:48;2.58;;;1.98;;
12445;SDS011;6287;50.984;7.022;2023-07-24T02:21:15;2.55;;;2.00;;
12445;SDS011;6287;50.984;7.022;2023-07-24T02:23:41;2.10;;;1.90;;
12445;SDS011;6287;50.984;7.022;2023-07-24T02:26:09;3.35;;;2.20;;
12445;SDS011;6287;50.984;7.022;2023-07-24T02:28:34;3.80;;;2.30;;
12445;SDS011;6287;50.984;7.022;2023-07-24T02:31:02;3.22;;;2.22;;
12445;SDS011;6287;50.984;7.022;2023-07-24T02:33:28;4.35;;;2.47;;
12445;SDS011;6287;50.984;7.022;2023-07-24T02:35:55;2.80;;;2.00;;
12445;SDS011;6287;50.984;7.022;2023-07-24T02:38:25;4.15;;;2.35;;
12445;SDS011;6287;50.984;7.022;2023-07-24T02:40:53;2.85;;;2.28;;
12445;SDS011;6287;50.984;7.022;2023-07-24T02:43:19;2.90;;;2.42;;
12445;SDS011;6287;50.984;7.022;2023-07-24T02:45:45;4.47;;;2.70;;
12445;SDS011;6287;50.984;7.022;2023-07-24T02:48:10;3.05;;;2.75;;
12445;SDS011;6287;50.984;7.022;2023-07-24T02:50:47;3.28;;;2.67;;
12445;SDS011;6287;50.984;7.022;2023-07-24T02:53:13;5.10;;;3.17;;
12445;SDS011;6287;50.984;7.022;2023-07-24T02:55:42;3.33;;;2.65;;
12445;SDS011;6287;50.984;7.022;2023-07-24T02:58:08;3.83;;;2.65;;
12445;SDS011;6287;50.984;7.022;2023-07-24T03:00:34;4.15;;;2.60;;
12445;SDS011;6287;50.984;7.022;2023-07-24T03:03:00;3.50;;;2.25;;
12445;SDS011;6287;50.984;7.022;2023-07-24T03:05:28;3.20;;;2.65;;
12445;SDS011;6287;50.984;7.022;2023-07-24T03:07:54;4.63;;;2.55;;
12445;SDS011;6287;50.984;7.022;2023-07-24T03:10:20;2.70;;;2.50;;
12445;SDS011;6287;50.984;7.022;2023-07-24T03:12:45;4.57;;;2.65;;
12445;SDS011;6287;50.984;7.022;2023-07-24T03:15:11;2.35;;;2.10;;
12445;SDS011;6287;50.984;7.022;2023-07-24T03:17:39;3.28;;;2.03;;
12445;SDS011;6287;50.984;7.022;2023-07-24T03:20:08;3.33;;;2.60;;
12445;SDS011;6287;50.984;7.022;2023-07-24T03:22:34;2.90;;;2.30;;
12445;SDS011;6287;50.984;7.022;2023-07-24T03:25:00;3.50;;;2.35;;
12445;SDS011;6287;50.984;7.022;2023-07-24T03:27:26;4.18;;;2.50;;
12445;SDS011;6287;50.984;7.022;2023-07-24T03:29:51;3.33;;;2.33;;
12445;SDS011;6287;50.984;7.022;2023-07-24T03:32:17;4.57;;;2.65;;
12445;SDS011;6287;50.984;7.022;2023-07-24T03:34:47;2.67;;;2.25;;
12445;SDS011;6287;50.984;7.022;2023-07-24T03:37:13;3.78;;;2.15;;
12445;SDS011;6287;50.984;7.022;2023-07-24T03:39:38;3.03;;;2.20;;
12445;SDS011;6287;50.984;7.022;2023-07-24T03:42:08;3.30;;;2.22;;
12445;SDS011;6287;50.984;7.022;2023-07-24T03:44:37;2.28;;;2.08;;
12445;SDS011;6287;50.984;7.022;2023-07-24T03:47:05;9.50;;;2.38;;
12445;SDS011;6287;50.984;7.022;2023-07-24T03:49:33;3.47;;;2.25;;
12445;SDS011;6287;50.984;7.022;2023-07-24T03:51:59;3.63;;;2.30;;
12445;SDS011;6287;50.984;7.022;2023-07-24T03:54:25;7.75;;;2.53;;
12445;SDS011;6287;50.984;7.022;2023-07-24T03:56:50;3.97;;;2.35;;
12445;SDS011;6287;50.984;7.022;2023-07-24T03:59:16;3.72;;;2.60;;
12445;SDS011;6287;50.984;7.022;2023-07-24T04:01:44;5.15;;;2.70;;
12445;SDS011;6287;50.984;7.022;2023-07-24T04:04:10;3.92;;;2.60;;
12445;SDS011;6287;50.984;7.022;2023-07-24T04:06:36;4.20;;;2.60;;
12445;SDS011;6287;50.984;7.022;2023-07-24T04:09:04;5.35;;;2.97;;
12445;SDS011;6287;50.984;7.022;2023-07-24T04:11:29;3.97;;;2.38;;
12445;SDS011;6287;50.984;7.022;2023-07-24T04:13:55;3.28;;;2.38;;
12445;SDS011;6287;50.984;7.022;2023-07-24T04:16:20;3.58;;;2.67;;
12445;SDS011;6287;50.984;7.022;2023-07-24T04:18:46;3.17;;;2.58;;
12445;SDS011;6287;50.984;7.022;2023-07-24T04:21:12;4.55;;;2.67;;
12445;SDS011;6287;50.984;7.022;2023-07-24T04:23:40;4.75;;;2.78;;
12445;SDS011;6287;50.984;7.022;2023-07-24T04:26:05;4.28;;;2.70;;
12445;SDS011;6287;50.984;7.022;2023-07-24T04:28:34;4.55;;;2.85;;
12445;SDS011;6287;50.984;7.022;2023-07-24T04:31:00;4.18;;;2.92;;
12445;SDS011;6287;50.984;7.022;2023-07-24T04:33:31;3.25;;;2.75;;
12445;SDS011;6287;50.984;7.022;2023-07-24T04:35:58;3.70;;;2.50;;
12445;SDS011;6287;50.984;7.022;2023-07-24T04:38:26;4.00;;;2.67;;
12445;SDS011;6287;50.984;7.022;2023-07-24T04:40:52;4.68;;;2.80;;
12445;SDS011;6287;50.984;7.022;2023-07-24T04:43:28;4.15;;;3.13;;
12445;SDS011;6287;50.984;7.022;2023-07-24T04:45:54;4.40;;;3.03;;
12445;SDS011;6287;50.984;7.022;2023-07-24T04:48:20;4.03;;;2.92;;
12445;SDS011;6287;50.984;7.022;2023-07-24T04:50:46;3.53;;;2.90;;
12445;SDS011;6287;50.984;7.022;2023-07-24T04:53:14;5.65;;;3.08;;
12445;SDS011;6287;50.984;7.022;2023-07-24T04:55:42;4.25;;;3.00;;
12445;SDS011;6287;50.984;7.022;2023-07-24T04:58:13;4.50;;;3.30;;
12445;SDS011;6287;50.984;7.022;2023-07-24T05:00:43;3.65;;;2.80;;
12445;SDS011;6287;50.984;7.022;2023-07-24T05:03:11;4.03;;;3.03;;
12445;SDS011;6287;50.984;7.022;2023-07-24T05:05:37;5.10;;;3.05;;
12445;SDS011;6287;50.984;7.022;2023-07-24T05:08:03;4.43;;;3.28;;
12445;SDS011;6287;50.984;7.022;2023-07-24T05:10:29;3.67;;;2.97;;
12445;SDS011;6287;50.984;7.022;2023-07-24T05:12:59;4.90;;;2.50;;
12445;SDS011;6287;50.984;7.022;2023-07-24T05:15:26;4.30;;;2.65;;
12445;SDS011;6287;50.984;7.022;2023-07-24T05:17:55;5.07;;;2.97;;
12445;SDS011;6287;50.984;7.022;2023-07-24T05:20:27;3.17;;;2.72;;
12445;SDS011;6287;50.984;7.022;2023-07-24T05:22:52;3.30;;;2.40;;
12445;SDS011;6287;50.984;7.022;2023-07-24T05:25:20;4.32;;;2.65;;
12445;SDS011;6287;50.984;7.022;2023-07-24T05:27:48;5.03;;;3.13;;
12445;SDS011;6287;50.984;7.022;2023-07-24T05:30:17;4.75;;;3.00;;
12445;SDS011;6287;50.984;7.022;2023-07-24T05:32:45;4.13;;;2.97;;
12445;SDS011;6287;50.984;7.022;2023-07-24T05:35:11;2.83;;;2.55;;
12445;SDS011;6287;50.984;7.022;2023-07-24T05:37:37;6.07;;;2.75;;
12445;SDS011;6287;50.984;7.022;2023-07-24T05:40:02;3.00;;;2.70;;
12445;SDS011;6287;50.984;7.022;2023-07-24T05:42:31;2.83;;;2.50;;
12445;SDS011;6287;50.984;7.022;2023-07-24T05:44:56;3.78;;;2.85;;
12445;SDS011;6287;50.984;7.022;2023-07-24T05:47:24;3.42;;;2.60;;
12445;SDS011;6287;50.984;7.022;2023-07-24T05:49:52;3.53;;;2.78;;
12445;SDS011;6287;50.984;7.022;2023-07-24T05:52:20;3.38;;;2.70;;
12445;SDS011;6287;50.984;7.022;2023-07-24T05:54:45;4.88;;;2.88;;
12445;SDS011;6287;50.984;7.022;2023-07-24T05:57:11;3.08;;;2.40;;
12445;SDS011;6287;50.984;7.022;2023-07-24T05:59:39;3.47;;;2.28;;
12445;SDS011;6287;50.984;7.022;2023-07-24T06:02:11;4.88;;;3.22;;
12445;SDS011;6287;50.984;7.022;2023-07-24T06:04:39;3.83;;;2.83;;
12445;SDS011;6287;50.984;7.022;2023-07-24T06:07:05;2.88;;;2.53;;
12445;SDS011;6287;50.984;7.022;2023-07-24T06:09:31;2.85;;;2.28;;
12445;SDS011;6287;50.984;7.022;2023-07-24T06:12:01;2.88;;;2.35;;
12445;SDS011;6287;50.984;7.022;2023-07-24T06:14:29;4.40;;;2.55;;
12445;SDS011;6287;50.984;7.022;2023-07-24T06:16:57;2.97;;;2.50;;
12445;SDS011;6287;50.984;7.022;2023-07-24T06:19:22;3.10;;;2.28;;
12445;SDS011;6287;50.984;7.022;2023-07-24T06:21:48;3.42;;;2.15;;
12445;SDS011;6287;50.984;7.022;2023-07-24T06:24:16;3.67;;;2.55;;
12445;SDS011;6287;50.984;7.022;2023-07-24T06:26:44;4.93;;;2.58;;
12445;SDS011;6287;50.984;7.022;2023-07-24T06:29:09;3.08;;;2.28;;
12445;SDS011;6287;50.984;7.022;2023-07-24T06:31:37;3.08;;;2.58;;
12445;SDS011;6287;50.984;7.022;2023-07-24T06:34:03;4.05;;;2.67;;
12445;SDS011;6287;50.984;7.022;2023-07-24T06:36:31;2.65;;;2.33;;
12445;SDS011;6287;50.984;7.022;2023-07-24T06:39:02;3.80;;;2.35;;
12445;SDS011;6287;50.984;7.022;2023-07-24T06:41:27;3.88;;;2.38;;
12445;SDS011;6287;50.984;7.022;2023-07-24T06:43:53;3.55;;;2.53;;
12445;SDS011;6287;50.984;7.022;2023-07-24T06:46:23;2.83;;;1.85;;
12445;SDS011;6287;50.984;7.022;2023-07-24T06:48:49;3.92;;;2.50;;
12445;SDS011;6287;50.984;7.022;2023-07-24T06:51:14;3.13;;;2.67;;
12445;SDS011;6287;50.984;7.022;2023-07-24T06:53:44;4.00;;;2.53;;
12445;SDS011;6287;50.984;7.022;2023-07-24T06:56:10;2.95;;;2.08;;
12445;SDS011;6287;50.984;7.022;2023-07-24T06:58:36;3.20;;;2.60;;
12445;SDS011;6287;50.984;7.022;2023-07-24T07:01:05;3.22;;;2.33;;
12445;SDS011;6287;50.984;7.022;2023-07-24T07:03:31;4.20;;;2.45;;
12445;SDS011;6287;50.984;7.022;2023-07-24T07:06:02;3.75;;;2.13;;
12445;SDS011;6287;50.984;7.022;2023-07-24T07:08:31;2.88;;;2.30;;
12445;SDS011;6287;50.984;7.022;2023-07-24T07:10:58;3.53;;;2.20;;
12445;SDS011;6287;50.984;7.022;2023-07-24T07:13:25;2.63;;;2.22;;
12445;SDS011;6287;50.984;7.022;2023-07-24T07:15:51;2.22;;;1.90;;
12445;SDS011;6287;50.984;7.022;2023-07-24T07:18:21;2.20;;;2.00;;
12445;SDS011;6287;50.984;7.022;2023-07-24T07:20:51;3.65;;;2.10;;
12445;SDS011;6287;50.984;7.022;2023-07-24T07:23:22;2.00;;;1.50;;
12445;SDS011;6287;50.984;7.022;2023-07-24T07:25:50;2.75;;;2.05;;
12445;SDS011;6287;50.984;7.022;2023-07-24T07:28:16;2.70;;;1.77;;
12445;SDS011;6287;50.984;7.022;2023-07-24T07:30:43;2.13;;;1.80;;
12445;SDS011;6287;50.984;7.022;2023-07-24T07:33:10;2.55;;;1.65;;
12445;SDS011;6287;50.984;7.022;2023-07-24T07:35:38;4.75;;;2.05;;
12445;SDS011;6287;50.984;7.022;2023-07-24T07:38:04;2.45;;;1.70;;
12445;SDS011;6287;50.984;7.022;2023-07-24T07:40:33;1.60;;;1.50;;
12445;SDS011;6287;50.984;7.022;2023-07-24T07:43:01;2.28;;;1.50;;
12445;SDS011;6287;50.984;7.022;2023-07-24T07:45:32;2.70;;;1.77;;
12445;SDS011;6287;50.984;7.022;2023-07-24T07:47:58;2.85;;;1.90;;
12445;SDS011;6287;50.984;7.022;2023-07-24T07:50:24;2.10;;;1.80;;
12445;SDS011;6287;50.984;7.022;2023-07-24T07:52:50;1.98;;;1.80;;
12445;SDS011;6287;50.984;7.022;2023-07-24T07:55:17;1.83;;;1.48;;
12445;SDS011;6287;50.984;7.022;2023-07-24T07:57:45;2.55;;;1.67;;
12445;SDS011;6287;50.984;7.022;2023-07-24T08:00:14;5.18;;;2.40;;
12445;SDS011;6287;50.984;7.022;2023-07-24T08:02:45;1.83;;;1.70;;
12445;SDS011;6287;50.984;7.022;2023-07-24T08:05:13;3.15;;;1.45;;
12445;SDS011;6287;50.984;7.022;2023-07-24T08:07:39;2.50;;;2.10;;
12445;SDS011;6287;50.984;7.022;2023-07-24T08:10:09;2.10;;;1.90;;
12445;SDS011;6287;50.984;7.022;2023-07-24T08:12:38;1.98;;;1.77;;
12445;SDS011;6287;50.984;7.022;2023-07-24T08:15:03;2.65;;;1.65;;
12445;SDS011;6287;50.984;7.022;2023-07-24T08:17:29;3.03;;;1.98;;
12445;SDS011;6287;50.984;7.022;2023-07-24T08:19:56;2.95;;;2.05;;
12445;SDS011;6287;50.984;7.022;2023-07-24T08:22:21;3.53;;;2.05;;
12445;SDS011;6287;50.984;7.022;2023-07-24T08:24:47;2.10;;;1.70;;
12445;SDS011;6287;50.984;7.022;2023-07-24T08:27:15;2.85;;;2.00;;
12445;SDS011;6287;50.984;7.022;2023-07-24T08:29:41;3.13;;;2.10;;
12445;SDS011;6287;50.984;7.022;2023-07-24T08:32:06;2.92;;;1.90;;
12445;SDS011;6287;50.984;7.022;2023-07-24T08:34:35;2.85;;;2.03;;
12445;SDS011;6287;50.984;7.022;2023-07-24T08:37:00;3.30;;;2.08;;
12445;SDS011;6287;50.984;7.022;2023-07-24T08:39:26;2.35;;;1.80;;
12445;SDS011;6287;50.984;7.022;2023-07-24T08:41:52;2.03;;;1.80;;
12445;SDS011;6287;50.984;7.022;2023-07-24T08:44:17;2.92;;;2.45;;
12445;SDS011;6287;50.984;7.022;2023-07-24T08:46:43;2.25;;;2.05;;
12445;SDS011;6287;50.984;7.022;2023-07-24T08:49:12;3.15;;;1.98;;
12445;SDS011;6287;50.984;7.022;2023-07-24T08:51:41;3.38;;;2.08;;
12445;SDS011;6287;50.984;7.022;2023-07-24T08:54:07;2.83;;;1.90;;
12445;SDS011;6287;50.984;7.022;2023-07-24T08:56:33;1.77;;;1.67;;
12445;SDS011;6287;50.984;7.022;2023-07-24T08:59:00;1.98;;;1.73;;
12445;SDS011;6287;50.984;7.022;2023-07-24T09:01:31;2.63;;;2.10;;
12445;SDS011;6287;50.984;7.022;2023-07-24T09:04:02;2.67;;;1.80;;
12445;SDS011;6287;50.984;7.022;2023-07-24T09:06:28;3.58;;;1.95;;
12445;SDS011;6287;50.984;7.022;2023-07-24T09:08:54;2.13;;;1.92;;
12445;SDS011;6287;50.984;7.022;2023-07-24T09:11:20;3.92;;;2.10;;
12445;SDS011;6287;50.984;7.022;2023-07-24T09:13:48;2.50;;;1.83;;
12445;SDS011;6287;50.984;7.022;2023-07-24T09:16:25;2.38;;;1.67;;
12445;SDS011;6287;50.984;7.022;2023-07-24T09:18:51;2.72;;;1.80;;
12445;SDS011;6287;50.984;7.022;2023-07-24T09:21:27;2.30;;;1.85;;
12445;SDS011;6287;50.984;7.022;2023-07-24T09:23:54;2.00;;;1.52;;
12445;SDS011;6287;50.984;7.022;2023-07-24T09:26:25;2.50;;;1.80;;
12445;SDS011;6287;50.984;7.022;2023-07-24T09:28:52;2.60;;;1.63;;
12445;SDS011;6287;50.984;7.022;2023-07-24T09:31:20;2.95;;;2.05;;
12445;SDS011;6287;50.984;7.022;2023-07-24T09:33:48;2.88;;;1.95;;
12445;SDS011;6287;50.984;7.022;2023-07-24T09:36:14;1.98;;;1.70;;
12445;SDS011;6287;50.984;7.022;2023-07-24T09:38:40;1.50;;;1.40;;
12445;SDS011;6287;50.984;7.022;2023-07-24T09:41:08;3.40;;;1.80;;
12445;SDS011;6287;50.984;7.022;2023-07-24T09:43:36;1.60;;;1.50;;
12445;SDS011;6287;50.984;7.022;2023-07-24T09:46:05;2.25;;;1.63;;
12445;SDS011;6287;50.984;7.022;2023-07-24T09:48:31;3.80;;;1.90;;
12445;SDS011;6287;50.984;7.022;2023-07-24T09:51:01;1.75;;;1.65;;
12445;SDS011;6287;50.984;7.022;2023-07-24T09:56:11;1.75;;;1.50;;
12445;SDS011;6287;50.984;7.022;2023-07-24T09:58:39;1.58;;;1.48;;
12445;SDS011;6287;50.984;7.022;2023-07-24T10:01:08;1.58;;;1.30;;
12445;SDS011;6287;50.984;7.022;2023-07-24T10:03:38;1.48;;;1.38;;
12445;SDS011;6287;50.984;7.022;2023-07-24T10:06:05;2.05;;;1.60;;
12445;SDS011;6287;50.984;7.022;2023-07-24T10:08:31;1.50;;;1.40;;
12445;SDS011;6287;50.984;7.022;2023-07-24T10:10:59;1.60;;;1.42;;
12445;SDS011;6287;50.984;7.022;2023-07-24T10:13:26;2.55;;;2.15;;
12445;SDS011;6287;50.984;7.022;2023-07-24T10:15:52;2.35;;;1.88;;
12445;SDS011;6287;50.984;7.022;2023-07-24T10:18:27;1.73;;;1.63;;
12445;SDS011;6287;50.984;7.022;2023-07-24T10:21:06;1.92;;;1.73;;
12445;SDS011;6287;50.984;7.022;2023-07-24T10:23:40;1.63;;;1.52;;
12445;SDS011;6287;50.984;7.022;2023-07-24T10:26:11;1.58;;;1.48;;
12445;SDS011;6287;50.984;7.022;2023-07-24T10:28:40;1.67;;;1.58;;
12445;SDS011;6287;50.984;7.022;2023-07-24T10:31:21;1.40;;;1.30;;
12445;SDS011;6287;50.984;7.022;2023-07-24T10:33:55;1.88;;;1.52;;
12445;SDS011;6287;50.984;7.022;2023-07-24T10:36:32;1.63;;;1.52;;
12445;SDS011;6287;50.984;7.022;2023-07-24T10:39:12;2.20;;;1.90;;
12445;SDS011;6287;50.984;7.022;2023-07-24T10:41:45;1.58;;;1.48;;
12445;SDS011;6287;50.984;7.022;2023-07-24T10:44:11;1.48;;;1.38;;
12445;SDS011;6287;50.984;7.022;2023-07-24T10:46:41;4.25;;;1.50;;
12445;SDS011;6287;50.984;7.022;2023-07-24T10:49:09;2.22;;;1.75;;
12445;SDS011;6287;50.984;7.022;2023-07-24T10:51:36;1.70;;;1.60;;
12445;SDS011;6287;50.984;7.022;2023-07-24T10:54:07;1.83;;;1.40;;
12445;SDS011;6287;50.984;7.022;2023-07-24T10:56:35;1.70;;;1.60;;
12445;SDS011;6287;50.984;7.022;2023-07-24T10:59:02;1.70;;;1.60;;
12445;SDS011;6287;50.984;7.022;2023-07-24T11:01:30;1.85;;;1.75;;
12445;SDS011;6287;50.984;7.022;2023-07-24T11:03:57;2.22;;;1.80;;
12445;SDS011;6287;50.984;7.022;2023-07-24T11:06:23;3.47;;;1.50;;
12445;SDS011;6287;50.984;7.022;2023-07-24T11:08:56;1.92;;;1.73;;
12445;SDS011;6287;50.984;7.022;2023-07-24T11:11:29;2.15;;;1.90;;
12445;SDS011;6287;50.984;7.022;2023-07-24T11:14:03;2.22;;;1.80;;
12445;SDS011;6287;50.984;7.022;2023-07-24T11:16:29;2.53;;;1.80;;
12445;SDS011;6287;50.984;7.022;2023-07-24T11:18:57;1.85;;;1.73;;
12445;SDS011;6287;50.984;7.022;2023-07-24T11:21:28;1.83;;;1.63;;
12445;SDS011;6287;50.984;7.022;2023-07-24T11:23:54;3.55;;;1.92;;
12445;SDS011;6287;50.984;7.022;2023-07-24T11:26:24;2.90;;;2.13;;
12445;SDS011;6287;50.984;7.022;2023-07-24T11:28:50;2.33;;;2.13;;
12445;SDS011;6287;50.984;7.022;2023-07-24T11:31:17;3.10;;;1.85;;
12445;SDS011;6287;50.984;7.022;2023-07-24T11:33:45;2.45;;;1.85;;
12445;SDS011;6287;50.984;7.022;2023-07-24T11:36:14;2.10;;;1.95;;
12445;SDS011;6287;50.984;7.022;2023-07-24T11:38:45;2.28;;;2.08;;
12445;SDS011;6287;50.984;7.022;2023-07-24T11:41:13;1.60;;;1.50;;
12445;SDS011;6287;50.984;7.022;2023-07-24T11:43:49;3.05;;;1.75;;
12445;SDS011;6287;50.984;7.022;2023-07-24T11:46:28;2.33;;;1.90;;
12445;SDS011;6287;50.984;7.022;2023-07-24T11:48:57;3.00;;;1.90;;
12445;SDS011;6287;50.984;7.022;2023-07-24T11:51:24;2.63;;;1.10;;
12445;SDS011;6287;50.984;7.022;2023-07-24T11:54:03;3.65;;;1.77;;
12445;SDS011;6287;50.984;7.022;2023-07-24T11:56:34;2.58;;;1.88;;
12445;SDS011;6287;50.984;7.022;2023-07-24T11:59:10;2.00;;;1.63;;
12445;SDS011;6287;50.984;7.022;2023-07-24T12:01:39;2.28;;;1.85;;
12445;SDS011;6287;50.984;7.022;2023-07-24T12:04:04;4.00;;;1.95;;
12445;SDS011;6287;50.984;7.022;2023-07-24T12:06:33;4.05;;;1.77;;
12445;SDS011;6287;50.984;7.022;2023-07-24T12:09:04;2.75;;;1.88;;
12445;SDS011;6287;50.984;7.022;2023-07-24T12:11:31;4.35;;;1.98;;
12445;SDS011;6287;50.984;7.022;2023-07-24T12:13:59;4.07;;;2.13;;
12445;SDS011;6287;50.984;7.022;2023-07-24T12:16:25;3.25;;;1.70;;
12445;SDS011;6287;50.984;7.022;2023-07-24T12:18:58;3.13;;;1.92;;
12445;SDS011;6287;50.984;7.022;2023-07-24T12:21:23;4.22;;;2.03;;
12445;SDS011;6287;50.984;7.022;2023-07-24T12:23:52;3.03;;;2.15;;
12445;SDS011;6287;50.984;7.022;2023-07-24T12:26:17;2.17;;;1.65;;
12445;SDS011;6287;50.984;7.022;2023-07-24T12:28:43;2.45;;;1.58;;
12445;SDS011;6287;50.984;7.022;2023-07-24T12:31:09;2.80;;;1.75;;
12445;SDS011;6287;50.984;7.022;2023-07-24T12:33:37;1.75;;;1.63;;
12445;SDS011;6287;50.984;7.022;2023-07-24T12:36:05;1.60;;;1.50;;
12445;SDS011;6287;50.984;7.022;2023-07-24T12:38:30;2.03;;;1.58;;
12445;SDS011;6287;50.984;7.022;2023-07-24T12:40:59;3.20;;;2.08;;
12445;SDS011;6287;50.984;7.022;2023-07-24T12:43:27;4.88;;;1.80;;
12445;SDS011;6287;50.984;7.022;2023-07-24T12:45:58;2.72;;;1.70;;
12445;SDS011;6287;50.984;7.022;2023-07-24T12:48:26;1.20;;;1.05;;
12445;SDS011;6287;50.984;7.022;2023-07-24T12:50:52;0.82;;;0.82;;
12445;SDS011;6287;50.984;7.022;2023-07-24T12:53:17;1.10;;;1.10;;
12445;SDS011;6287;50.984;7.022;2023-07-24T12:55:45;1.67;;;1.20;;
12445;SDS011;6287;50.984;7.022;2023-07-24T12:58:13;1.65;;;1.20;;
12445;SDS011;6287;50.984;7.022;2023-07-24T13:00:38;1.27;;;1.20;;
12445;SDS011;6287;50.984;7.022;2023-07-24T13:03:04;1.70;;;1.10;;
12445;SDS011;6287;50.984;7.022;2023-07-24T13:05:30;2.15;;;1.30;;
12445;SDS011;6287;50.984;7.022;2023-07-24T13:07:56;1.27;;;1.17;;
12445;SDS011;6287;50.984;7.022;2023-07-24T13:10:26;1.17;;;1.00;;
12445;SDS011;6287;50.984;7.022;2023-07-24T13:12:52;1.27;;;1.17;;
12445;SDS011;6287;50.984;7.022;2023-07-24T13:15:18;1.98;;;1.08;;
12445;SDS011;6287;50.984;7.022;2023-07-24T13:17:43;1.30;;;1.20;;
12445;SDS011;6287;50.984;7.022;2023-07-24T13:20:09;2.15;;;1.45;;
12445;SDS011;6287;50.984;7.022;2023-07-24T13:22:36;2.55;;;1.58;;
12445;SDS011;6287;50.984;7.022;2023-07-24T13:25:04;2.10;;;1.10;;
12445;SDS011;6287;50.984;7.022;2023-07-24T13:27:33;1.80;;;1.30;;
12445;SDS011;6287;50.984;7.022;2023-07-24T13:29:58;2.20;;;1.13;;
12445;SDS011;6287;50.984;7.022;2023-07-24T13:32:24;1.10;;;1.00;;
12445;SDS011;6287;50.984;7.022;2023-07-24T13:34:50;1.20;;;1.10;;
12445;SDS011;6287;50.984;7.022;2023-07-24T13:37:19;1.83;;;1.00;;
12445;SDS011;6287;50.984;7.022;2023-07-24T13:39:51;1.08;;;0.98;;
12445;SDS011;6287;50.984;7.022;2023-07-24T13:42:19;1.27;;;1.00;;
12445;SDS011;6287;50.984;7.022;2023-07-24T13:44:47;1.38;;;1.00;;
12445;SDS011;6287;50.984;7.022;2023-07-24T13:47:13;1.45;;;1.20;;
12445;SDS011;6287;50.984;7.022;2023-07-24T13:49:38;1.13;;;1.02;;
12445;SDS011;6287;50.984;7.022;2023-07-24T13:52:04;1.10;;;1.10;;
12445;SDS011;6287;50.984;7.022;2023-07-24T13:54:30;0.90;;;0.90;;
12445;SDS011;6287;50.984;7.022;2023-07-24T13:56:56;2.38;;;1.00;;
12445;SDS011;6287;50.984;7.022;2023-07-24T13:59:24;1.88;;;1.10;;
12445;SDS011;6287;50.984;7.022;2023-07-24T14:01:52;1.00;;;1.00;;
12445;SDS011;6287;50.984;7.022;2023-07-24T14:04:21;0.95;;;0.90;;
12445;SDS011;6287;50.984;7.022;2023-07-24T14:06:49;0.95;;;0.95;;
12445;SDS011;6287;50.984;7.022;2023-07-24T14:09:17;1.05;;;0.95;;
12445;SDS011;6287;50.984;7.022;2023-07-24T14:11:48;1.75;;;1.25;;
12445;SDS011;6287;50.984;7.022;2023-07-24T14:14:13;1.40;;;1.30;;
12445;SDS011;6287;50.984;7.022;2023-07-24T14:16:40;1.25;;;1.10;;
12445;SDS011;6287;50.984;7.022;2023-07-24T14:19:06;1.00;;;1.00;;
12445;SDS011;6287;50.984;7.022;2023-07-24T14:21:31;3.60;;;1.20;;
12445;SDS011;6287;50.984;7.022;2023-07-24T14:23:57;1.25;;;1.17;;
12445;SDS011;6287;50.984;7.022;2023-07-24T14:26:23;1.52;;;1.25;;
12445;SDS011;6287;50.984;7.022;2023-07-24T14:28:51;1.50;;;1.40;;
12445;SDS011;6287;50.984;7.022;2023-07-24T14:31:17;1.83;;;1.40;;
12445;SDS011;6287;50.984;7.022;2023-07-24T14:33:43;1.85;;;1.10;;
12445;SDS011;6287;50.984;7.022;2023-07-24T14:36:10;1.30;;;0.90;;
12445;SDS011;6287;50.984;7.022;2023-07-24T14:38:39;1.33;;;1.00;;
12445;SDS011;6287;50.984;7.022;2023-07-24T14:41:09;2.05;;;0.85;;
12445;SDS011;6287;50.984;7.022;2023-07-24T14:43:37;2.90;;;0.80;;
12445;SDS011;6287;50.984;7.022;2023-07-24T14:46:08;0.88;;;0.88;;
12445;SDS011;6287;50.984;7.022;2023-07-24T14:48:34;1.73;;;0.85;;
12445;SDS011;6287;50.984;7.022;2023-07-24T14:51:02;1.65;;;0.73;;
12445;SDS011;6287;50.984;7.022;2023-07-24T14:53:27;0.82;;;0.82;;
12445;SDS011;6287;50.984;7.022;2023-07-24T14:55:53;1.00;;;0.90;;
12445;SDS011;6287;50.984;7.022;2023-07-24T14:58:18;0.85;;;0.70;;
12445;SDS011;6287;50.984;7.022;2023-07-24T15:00:44;1.00;;;1.00;;
12445;SDS011;6287;50.984;7.022;2023-07-24T15:03:10;1.20;;;0.98;;
12445;SDS011;6287;50.984;7.022;2023-07-24T15:05:35;0.77;;;0.63;;